Time;durP1;ratioP1;P1;durP2;ratioP2;P2;SDS_P1;SDS_P2;PMS_P1;PMS_P2;Temp;Humidity;BMP_temperature;BMP_pressure;BME280_temperature;BME280_humidity;BME280_pressure;Samples;Min_cycle;Max_cycle;Signal;HPM_P1;HPM_P2
2021/04/17 00:05:41;;;;;;;12.25;5.75;;;;;;;;;;4923176;28;20202;31
2021/04/17 00:08:07;;;;;;;8.35;5.37;;;;;;;;;;4174252;34;20522;-54
2021/04/17 00:10:33;;;;;;;11.38;5.43;;;;;;;;;;4176018;34;20087;-54
2021/04/17 00:12:59;;;;;;;7.65;5.70;;;;;;;;;;4177291;34;20114;-53
2021/04/17 00:15:25;;;;;;;6.93;5.18;;;;;;;;;;4162123;34;20110;-53
2021/04/17 00:17:51;;;;;;;8.45;5.40;;;;;;;;;;4150888;34;20466;-56
2021/04/17 00:20:17;;;;;;;8.80;4.85;;;;;;;;;;4163374;34;20122;-55
2021/04/17 00:22:42;;;;;;;8.23;5.62;;;;;;;;;;4163391;34;20217;-52
2021/04/17 00:25:09;;;;;;;9.38;5.00;;;;;;;;;;4176882;34;20146;-51
2021/04/17 00:27:34;;;;;;;8.45;5.10;;;;;;;;;;4177085;34;20140;-54
2021/04/17 00:30:00;;;;;;;11.10;5.45;;;;;;;;;;4177114;34;20129;-55
2021/04/17 00:32:26;;;;;;;8.60;5.18;;;;;;;;;;4177083;34;20185;-54
2021/04/17 00:34:52;;;;;;;8.15;5.25;;;;;;;;;;4177277;34;20133;-53
2021/04/17 00:37:18;;;;;;;7.68;5.12;;;;;;;;;;4176996;34;20623;-54
2021/04/17 00:39:44;;;;;;;10.05;5.30;;;;;;;;;;4176985;34;20101;-52
2021/04/17 00:42:10;;;;;;;12.20;5.00;;;;;;;;;;4176839;34;20226;-55
2021/04/17 00:44:36;;;;;;;13.48;5.85;;;;;;;;;;4176927;34;20120;-53
2021/04/17 00:47:04;;;;;;;8.05;4.85;;;;;;;;;;4177137;34;20119;-55
2021/04/17 00:49:30;;;;;;;9.77;5.70;;;;;;;;;;4177102;34;20087;-54
2021/04/17 00:51:56;;;;;;;10.55;5.18;;;;;;;;;;4164013;34;20119;-55
2021/04/17 00:54:22;;;;;;;7.40;5.05;;;;;;;;;;4164163;34;20211;-54
2021/04/17 00:56:48;;;;;;;9.02;5.43;;;;;;;;;;4176674;34;20407;-54
2021/04/17 00:59:14;;;;;;;12.60;6.82;;;;;;;;;;4176807;34;20105;-55
2021/04/17 01:01:40;;;;;;;10.80;5.70;;;;;;;;;;4164321;34;20110;-55
2021/04/17 01:04:20;;;;;;;7.40;5.22;;;;;;;;;;4176772;34;20106;-55
2021/04/17 01:06:52;;;;;;;8.65;5.00;;;;;;;;;;4176522;34;20563;-52
2021/04/17 01:09:29;;;;;;;10.32;5.62;;;;;;;;;;4164071;34;20136;-53
2021/04/17 01:12:16;;;;;;;10.30;6.12;;;;;;;;;;4163970;34;20099;-55
2021/04/17 01:14:50;;;;;;;9.65;6.75;;;;;;;;;;4163865;34;20213;-53
2021/04/17 01:17:16;;;;;;;9.95;6.28;;;;;;;;;;4164149;34;20458;-55
2021/04/17 01:20:04;;;;;;;8.65;5.95;;;;;;;;;;4163904;34;20137;-53
2021/04/17 01:22:30;;;;;;;11.73;5.97;;;;;;;;;;4176489;34;20119;-52
2021/04/17 01:25:02;;;;;;;11.20;5.37;;;;;;;;;;4152879;34;20091;-53
2021/04/17 01:27:28;;;;;;;10.95;6.72;;;;;;;;;;4164049;34;20199;-54
2021/04/17 01:29:54;;;;;;;12.93;6.78;;;;;;;;;;4163805;34;20102;-52
2021/04/17 01:32:20;;;;;;;12.23;7.62;;;;;;;;;;4165701;34;20194;-54
2021/04/17 01:34:46;;;;;;;12.73;6.57;;;;;;;;;;4178528;34;20130;-52
2021/04/17 01:37:12;;;;;;;11.57;7.20;;;;;;;;;;4165844;34;20550;-55
2021/04/17 01:39:38;;;;;;;11.02;5.82;;;;;;;;;;4165882;34;20126;-55
2021/04/17 01:42:06;;;;;;;9.20;5.03;;;;;;;;;;4178410;34;20094;-55
2021/04/17 01:44:38;;;;;;;9.48;5.93;;;;;;;;;;4178966;34;20300;-54
2021/04/17 01:47:06;;;;;;;11.52;5.22;;;;;;;;;;4166195;34;20121;-54
2021/04/17 01:49:34;;;;;;;9.27;5.32;;;;;;;;;;4178685;34;20125;-53
2021/04/17 01:52:00;;;;;;;9.35;5.28;;;;;;;;;;4165797;34;20114;-51
2021/04/17 01:54:30;;;;;;;7.05;4.95;;;;;;;;;;4165955;34;20109;-52
2021/04/17 01:56:57;;;;;;;11.95;5.37;;;;;;;;;;4154475;34;20524;-52
2021/04/17 01:59:23;;;;;;;10.30;5.18;;;;;;;;;;4165807;34;20129;-52
2021/04/17 02:01:49;;;;;;;7.05;4.78;;;;;;;;;;4165813;34;20526;-54
2021/04/17 02:04:16;;;;;;;9.07;5.28;;;;;;;;;;4178323;34;20118;-55
2021/04/17 02:06:42;;;;;;;8.20;4.75;;;;;;;;;;4177901;34;20194;-53
2021/04/17 02:09:08;;;;;;;11.70;4.85;;;;;;;;;;4178180;34;20167;-54
2021/04/17 02:11:34;;;;;;;11.05;5.15;;;;;;;;;;4178211;34;20110;-54
2021/04/17 02:14:00;;;;;;;9.98;4.78;;;;;;;;;;4178284;34;20477;-52
2021/04/17 02:16:35;;;;;;;13.95;6.53;;;;;;;;;;4165524;34;20550;-53
2021/04/17 02:19:17;;;;;;;13.23;6.70;;;;;;;;;;4154967;34;20106;-54
2021/04/17 02:21:43;;;;;;;19.35;7.78;;;;;;;;;;4178111;34;20198;-53
2021/04/17 02:24:09;;;;;;;13.75;6.43;;;;;;;;;;4178250;34;20511;-55
2021/04/17 02:26:36;;;;;;;18.83;9.98;;;;;;;;;;4154393;34;20116;-55
2021/04/17 02:29:02;;;;;;;28.12;12.50;;;;;;;;;;4178333;34;20499;-54
2021/04/17 02:31:28;;;;;;;37.67;16.37;;;;;;;;;;4178153;34;20107;-54
2021/04/17 02:33:55;;;;;;;28.80;13.70;;;;;;;;;;4178129;34;20179;-54
2021/04/17 02:36:21;;;;;;;25.90;11.32;;;;;;;;;;4177984;34;20161;-53
2021/04/17 02:38:46;;;;;;;25.23;11.55;;;;;;;;;;4178038;34;20511;-55
2021/04/17 02:41:13;;;;;;;25.98;11.55;;;;;;;;;;4177833;34;20114;-52
2021/04/17 02:43:42;;;;;;;33.67;15.63;;;;;;;;;;4177932;34;20109;-54
2021/04/17 02:46:08;;;;;;;29.63;13.43;;;;;;;;;;4177817;34;20129;-54
2021/04/17 02:48:34;;;;;;;29.65;12.13;;;;;;;;;;4165407;34;20234;-54
2021/04/17 02:51:00;;;;;;;21.33;8.43;;;;;;;;;;4165379;34;20146;-55
2021/04/17 02:53:26;;;;;;;16.17;7.85;;;;;;;;;;4177909;34;20126;-55
2021/04/17 02:55:52;;;;;;;9.25;5.22;;;;;;;;;;4178091;34;20482;-55
2021/04/17 02:58:18;;;;;;;13.95;6.45;;;;;;;;;;4177946;34;20201;-54
2021/04/17 03:00:44;;;;;;;12.50;5.53;;;;;;;;;;4177721;34;20220;-54
2021/04/17 03:03:10;;;;;;;10.23;5.93;;;;;;;;;;4177821;34;20108;-55
2021/04/17 03:05:35;;;;;;;10.85;5.30;;;;;;;;;;4177818;34;20193;-53
2021/04/17 03:08:01;;;;;;;11.82;5.07;;;;;;;;;;4177265;34;20110;-53
2021/04/17 03:10:27;;;;;;;10.35;4.75;;;;;;;;;;4177688;34;20134;-52
2021/04/17 03:12:53;;;;;;;9.52;4.50;;;;;;;;;;4177650;34;20225;-51
2021/04/17 03:15:19;;;;;;;7.45;5.10;;;;;;;;;;4177654;34;20125;-55
2021/04/17 03:17:45;;;;;;;13.23;5.18;;;;;;;;;;4177687;34;20129;-55
2021/04/17 03:20:12;;;;;;;10.40;4.90;;;;;;;;;;4177788;34;20387;-54
2021/04/17 03:22:38;;;;;;;8.75;4.53;;;;;;;;;;4177499;34;20103;-55
2021/04/17 03:25:06;;;;;;;6.90;4.35;;;;;;;;;;4177695;34;20125;-55
2021/04/17 03:27:32;;;;;;;13.45;4.18;;;;;;;;;;4177517;34;20170;-57
2021/04/17 03:29:58;;;;;;;8.65;4.20;;;;;;;;;;4177620;34;20202;-55
2021/04/17 03:32:24;;;;;;;9.75;4.22;;;;;;;;;;4177385;34;20125;-55
2021/04/17 03:34:49;;;;;;;6.53;4.15;;;;;;;;;;4177624;34;20506;-54
2021/04/17 03:37:15;;;;;;;8.15;4.30;;;;;;;;;;4177573;34;20129;-55
2021/04/17 03:39:41;;;;;;;7.78;4.30;;;;;;;;;;4177517;34;20210;-54
2021/04/17 03:42:07;;;;;;;6.05;3.78;;;;;;;;;;4177488;34;20543;-55
2021/04/17 03:44:33;;;;;;;8.13;4.30;;;;;;;;;;4177444;34;20114;-55
2021/04/17 03:46:59;;;;;;;7.75;3.90;;;;;;;;;;4177341;34;20102;-53
2021/04/17 03:49:25;;;;;;;6.87;4.75;;;;;;;;;;4177236;34;20109;-53
2021/04/17 04:22:28;;;;;;;10.77;4.85;;;;;;;;;;3878138;37;20097;-49
2021/04/17 04:24:54;;;;;;;11.98;4.85;;;;;;;;;;4435564;32;20111;-49
2021/04/17 04:27:20;;;;;;;7.97;4.45;;;;;;;;;;4435429;32;20491;-51
2021/04/17 04:29:46;;;;;;;8.07;4.25;;;;;;;;;;4435199;32;20195;-49
2021/04/17 04:32:12;;;;;;;4.70;4.10;;;;;;;;;;4435160;32;20120;-52
2021/04/17 04:34:38;;;;;;;8.13;4.50;;;;;;;;;;4435555;32;20104;-52
2021/04/17 04:37:03;;;;;;;12.10;4.82;;;;;;;;;;4435133;32;20207;-52
2021/04/17 04:39:29;;;;;;;10.88;4.90;;;;;;;;;;4435523;32;20210;-52
2021/04/17 04:41:55;;;;;;;6.47;3.30;;;;;;;;;;4435107;32;20120;-56
2021/04/17 04:44:21;;;;;;;7.40;3.90;;;;;;;;;;4435190;32;20581;-53
2021/04/17 04:46:47;;;;;;;10.25;4.32;;;;;;;;;;4435081;32;20502;-53
2021/04/17 04:49:14;;;;;;;5.20;3.17;;;;;;;;;;4435196;32;20096;-51
2021/04/17 04:51:40;;;;;;;8.15;3.97;;;;;;;;;;4434961;32;20104;-48
2021/04/17 04:54:06;;;;;;;5.00;3.30;;;;;;;;;;4435040;32;20188;-53
2021/04/17 04:56:31;;;;;;;8.10;3.03;;;;;;;;;;4434849;32;20115;-57
2021/04/17 04:58:57;;;;;;;7.30;3.12;;;;;;;;;;4435319;32;20582;-57
2021/04/17 05:01:23;;;;;;;7.32;2.78;;;;;;;;;;4435188;32;20221;-56
2021/04/17 05:03:50;;;;;;;6.15;2.80;;;;;;;;;;4420994;32;20112;-57
2021/04/17 05:06:17;;;;;;;49.45;6.50;;;;;;;;;;4434921;32;20527;-56
2021/04/17 05:08:43;;;;;;;5.70;3.15;;;;;;;;;;4435004;32;20520;-53
2021/04/17 05:11:09;;;;;;;4.87;2.90;;;;;;;;;;4434920;32;20108;-57
2021/04/17 05:13:35;;;;;;;9.25;3.20;;;;;;;;;;4434899;32;20196;-53
2021/04/17 05:16:01;;;;;;;4.60;2.80;;;;;;;;;;4419891;32;20188;-53
2021/04/17 05:18:27;;;;;;;4.00;2.78;;;;;;;;;;4434871;32;20193;-53
2021/04/17 05:20:52;;;;;;;5.95;3.03;;;;;;;;;;4434654;32;20211;-54
2021/04/17 05:23:19;;;;;;;3.85;2.70;;;;;;;;;;4411193;32;20127;-55
2021/04/17 05:25:45;;;;;;;4.40;2.87;;;;;;;;;;4424676;32;20225;-50
2021/04/17 05:28:11;;;;;;;10.07;3.55;;;;;;;;;;4424548;32;20128;-54
2021/04/17 05:30:38;;;;;;;4.37;2.90;;;;;;;;;;4424608;32;20479;-53
2021/04/17 05:33:04;;;;;;;10.10;3.47;;;;;;;;;;4424425;32;20111;-53
2021/04/17 05:35:30;;;;;;;6.78;3.53;;;;;;;;;;4424336;32;20530;-56
2021/04/17 05:37:56;;;;;;;10.38;3.20;;;;;;;;;;4424318;32;20128;-57
2021/04/17 05:40:22;;;;;;;8.88;3.33;;;;;;;;;;4424247;32;20101;-56
2021/04/17 05:42:47;;;;;;;7.78;3.28;;;;;;;;;;4424340;32;20520;-55
2021/04/17 05:45:13;;;;;;;5.65;3.35;;;;;;;;;;4424262;32;20207;-53
2021/04/17 05:47:39;;;;;;;7.32;3.35;;;;;;;;;;4424436;32;20101;-54
2021/04/17 05:50:06;;;;;;;7.22;2.90;;;;;;;;;;4424326;32;20113;-53
2021/04/17 05:52:32;;;;;;;7.87;3.72;;;;;;;;;;4424343;32;20128;-55
2021/04/17 05:54:57;;;;;;;10.40;3.30;;;;;;;;;;4424261;32;20113;-53
2021/04/17 05:57:23;;;;;;;5.60;3.12;;;;;;;;;;4424150;32;20159;-53
2021/04/17 05:59:49;;;;;;;4.22;2.72;;;;;;;;;;4424169;32;20112;-55
2021/04/17 06:02:15;;;;;;;4.90;3.25;;;;;;;;;;4424258;32;20128;-54
2021/04/17 06:04:41;;;;;;;6.25;2.83;;;;;;;;;;4424116;32;20216;-52
2021/04/17 06:07:07;;;;;;;8.98;2.95;;;;;;;;;;4409879;32;20212;-56
2021/04/17 06:09:33;;;;;;;5.65;3.08;;;;;;;;;;4424245;32;20475;-53
2021/04/17 06:11:58;;;;;;;5.18;3.25;;;;;;;;;;4423957;32;20140;-52
2021/04/17 06:14:24;;;;;;;6.30;3.22;;;;;;;;;;4424143;32;20192;-53
2021/04/17 06:16:50;;;;;;;5.10;2.83;;;;;;;;;;4424344;32;20439;-54
2021/04/17 06:19:16;;;;;;;4.82;2.87;;;;;;;;;;4424060;32;20093;-55
2021/04/17 06:21:42;;;;;;;6.90;3.42;;;;;;;;;;4423831;32;20125;-53
2021/04/17 06:24:09;;;;;;;10.02;3.20;;;;;;;;;;4424060;32;20208;-54
2021/04/17 06:26:38;;;;;;;6.05;2.90;;;;;;;;;;4424119;32;20180;-53
2021/04/17 06:29:05;;;;;;;5.68;2.67;;;;;;;;;;4423955;32;20123;-52
2021/04/17 06:31:31;;;;;;;11.12;3.47;;;;;;;;;;4423945;32;20139;-52
2021/04/17 06:33:57;;;;;;;3.62;2.65;;;;;;;;;;4408801;32;20108;-52
2021/04/17 06:36:23;;;;;;;5.22;2.97;;;;;;;;;;4423779;32;20554;-54
2021/04/17 06:38:48;;;;;;;6.45;3.15;;;;;;;;;;4423950;32;20128;-55
2021/04/17 06:41:14;;;;;;;5.47;2.83;;;;;;;;;;4423915;32;20136;-52
2021/04/17 06:43:41;;;;;;;8.35;2.87;;;;;;;;;;4409853;32;20100;-50
2021/04/17 06:46:07;;;;;;;10.18;3.17;;;;;;;;;;4423882;32;20108;-52
2021/04/17 06:48:34;;;;;;;8.93;2.65;;;;;;;;;;4409998;32;20120;-55
2021/04/17 06:51:01;;;;;;;7.28;2.80;;;;;;;;;;4397288;32;20100;-52
2021/04/17 06:53:27;;;;;;;7.20;3.05;;;;;;;;;;4397080;32;20508;-53
2021/04/17 06:55:53;;;;;;;7.25;3.30;;;;;;;;;;4396925;32;20104;-53
2021/04/17 06:58:19;;;;;;;7.72;3.25;;;;;;;;;;4409655;32;20084;-53
2021/04/17 07:00:46;;;;;;;7.43;2.92;;;;;;;;;;4423580;32;20179;-51
2021/04/17 07:03:12;;;;;;;6.45;2.60;;;;;;;;;;4423626;32;20129;-53
2021/04/17 07:05:38;;;;;;;5.78;2.55;;;;;;;;;;4409523;32;20207;-55
2021/04/17 07:08:04;;;;;;;12.37;2.83;;;;;;;;;;4423699;32;20109;-53
2021/04/17 07:10:30;;;;;;;4.72;2.58;;;;;;;;;;4423389;32;20091;-53
2021/04/17 07:13:15;;;;;;;4.53;3.00;;;;;;;;;;4423839;32;20112;-52
2021/04/17 07:15:42;;;;;;;4.15;2.17;;;;;;;;;;4423449;32;20530;-53
2021/04/17 07:18:26;;;;;;;4.53;2.78;;;;;;;;;;4423840;32;20193;-51
2021/04/17 07:20:53;;;;;;;12.30;4.05;;;;;;;;;;4423167;32;20088;-53
2021/04/17 07:23:31;;;;;;;9.38;3.53;;;;;;;;;;4423491;32;20618;-52
2021/04/17 07:26:16;;;;;;;4.82;2.62;;;;;;;;;;4423348;32;20123;-54
2021/04/17 07:28:55;;;;;;;4.32;2.62;;;;;;;;;;4423623;32;20183;-53
2021/04/17 07:31:22;;;;;;;6.05;2.65;;;;;;;;;;4423210;32;20460;-51
2021/04/17 07:33:48;;;;;;;17.83;3.75;;;;;;;;;;4409376;32;20128;-53
2021/04/17 07:36:17;;;;;;;6.45;3.30;;;;;;;;;;4423478;32;20148;-54
2021/04/17 07:38:43;;;;;;;7.15;2.97;;;;;;;;;;4423272;32;20111;-55
2021/04/17 07:41:14;;;;;;;4.75;2.60;;;;;;;;;;4423189;32;20173;-55
2021/04/17 07:43:49;;;;;;;8.25;2.80;;;;;;;;;;4423752;32;20096;-54
2021/04/17 07:46:16;;;;;;;8.25;2.80;;;;;;;;;;4423048;32;20444;-53
2021/04/17 07:48:42;;;;;;;8.35;2.90;;;;;;;;;;4396532;32;20085;-54
2021/04/17 07:51:08;;;;;;;10.75;3.22;;;;;;;;;;4423092;32;20519;-53
2021/04/17 07:53:36;;;;;;;5.45;2.75;;;;;;;;;;4423325;32;20172;-54
2021/04/17 07:56:36;;;;;;;8.88;2.75;;;;;;;;;;4423113;32;20112;-54
2021/04/17 07:59:04;;;;;;;9.50;2.95;;;;;;;;;;4423098;32;20097;-54
2021/04/17 08:01:33;;;;;;;5.50;2.40;;;;;;;;;;4423299;32;20208;-53
2021/04/17 08:04:00;;;;;;;5.07;2.70;;;;;;;;;;4423337;32;20093;-53
2021/04/17 08:06:27;;;;;;;14.07;3.28;;;;;;;;;;4423008;32;20124;-54
2021/04/17 08:08:53;;;;;;;4.80;2.80;;;;;;;;;;4422850;32;20444;-55
2021/04/17 08:11:25;;;;;;;9.32;2.87;;;;;;;;;;4422787;32;20171;-55
2021/04/17 08:13:51;;;;;;;4.93;2.47;;;;;;;;;;4409395;32;20104;-54
2021/04/17 08:16:18;;;;;;;9.00;2.80;;;;;;;;;;4423012;32;20189;-54
2021/04/17 08:18:44;;;;;;;7.10;2.67;;;;;;;;;;4422903;32;20092;-52
2021/04/17 08:21:11;;;;;;;6.37;2.33;;;;;;;;;;4422524;32;20105;-54
2021/04/17 08:23:37;;;;;;;7.05;2.50;;;;;;;;;;4408709;32;20116;-55
2021/04/17 08:26:05;;;;;;;14.02;2.50;;;;;;;;;;4422913;32;20123;-57
2021/04/17 08:28:32;;;;;;;9.00;3.03;;;;;;;;;;4422954;32;20093;-54
2021/04/17 08:31:21;;;;;;;9.38;3.17;;;;;;;;;;4395808;32;20097;-54
2021/04/17 08:34:16;;;;;;;3.30;2.20;;;;;;;;;;4408568;32;20443;-53
2021/04/17 08:36:53;;;;;;;5.53;3.00;;;;;;;;;;4422729;32;20543;-52
2021/04/17 08:39:42;;;;;;;23.48;3.67;;;;;;;;;;4408531;32;20116;-54
2021/04/17 08:42:09;;;;;;;6.90;2.62;;;;;;;;;;4412793;32;20139;-52
2021/04/17 08:44:40;;;;;;;3.92;2.10;;;;;;;;;;4422581;32;20088;-49
2021/04/17 08:47:08;;;;;;;6.07;2.80;;;;;;;;;;4422809;32;20086;-51
2021/04/17 08:49:39;;;;;;;11.15;2.92;;;;;;;;;;4422547;32;20132;-54
2021/04/17 08:52:22;;;;;;;4.35;2.80;;;;;;;;;;4422342;32;20108;-54
2021/04/17 08:54:54;;;;;;;8.23;3.37;;;;;;;;;;4422452;32;20191;-51
2021/04/17 08:57:20;;;;;;;6.93;2.72;;;;;;;;;;4423157;32;20103;-52
2021/04/17 08:59:56;;;;;;;17.70;3.50;;;;;;;;;;4398348;32;20112;-54
2021/04/17 09:02:23;;;;;;;8.27;2.70;;;;;;;;;;4424825;32;20276;-54
2021/04/17 09:05:01;;;;;;;6.25;2.85;;;;;;;;;;4424740;32;20108;-52
2021/04/17 09:07:28;;;;;;;4.90;3.00;;;;;;;;;;4424810;32;20097;-54
2021/04/17 09:09:54;;;;;;;5.30;2.97;;;;;;;;;;4424563;32;20124;-54
2021/04/17 09:12:22;;;;;;;4.18;2.85;;;;;;;;;;4410831;32;20199;-52
2021/04/17 09:14:49;;;;;;;5.80;3.03;;;;;;;;;;4424698;32;20116;-49
2021/04/17 09:17:41;;;;;;;7.72;2.70;;;;;;;;;;4424528;32;20101;-52
2021/04/17 09:20:09;;;;;;;4.40;2.40;;;;;;;;;;4424476;32;20509;-52
2021/04/17 09:22:35;;;;;;;6.20;3.33;;;;;;;;;;4424566;32;20118;-51
2021/04/17 09:25:08;;;;;;;4.72;3.37;;;;;;;;;;4424403;32;20135;-52
2021/04/17 09:27:44;;;;;;;2.90;2.47;;;;;;;;;;4410668;32;20121;-51
2021/04/17 09:30:12;;;;;;;6.35;2.58;;;;;;;;;;4424431;32;20311;-52
2021/04/17 09:32:41;;;;;;;7.62;2.95;;;;;;;;;;4410485;32;20530;-52
2021/04/17 09:35:35;;;;;;;25.55;4.12;;;;;;;;;;4424377;32;20123;-53
2021/04/17 09:38:01;;;;;;;10.07;3.45;;;;;;;;;;4424567;32;20085;-52
2021/04/17 09:40:35;;;;;;;27.80;3.90;;;;;;;;;;4424380;32;20535;-52
2021/04/17 09:43:01;;;;;;;7.85;3.45;;;;;;;;;;4424319;32;20439;-52
2021/04/17 09:45:37;;;;;;;8.27;2.95;;;;;;;;;;4424278;32;20176;-52
2021/04/17 09:48:05;;;;;;;7.72;3.95;;;;;;;;;;4424450;32;20097;-50
2021/04/17 09:50:32;;;;;;;8.55;3.45;;;;;;;;;;4424220;32;20201;-50
2021/04/17 09:53:14;;;;;;;11.90;3.72;;;;;;;;;;4424356;32;20101;-52
2021/04/17 09:55:50;;;;;;;4.35;2.58;;;;;;;;;;4424247;32;20118;-51
2021/04/17 09:58:41;;;;;;;7.78;2.83;;;;;;;;;;4424235;32;20124;-50
2021/04/17 10:01:14;;;;;;;6.82;2.85;;;;;;;;;;4424495;32;20120;-52
2021/04/17 10:03:41;;;;;;;6.47;3.05;;;;;;;;;;4424515;32;20085;-52
2021/04/17 10:06:31;;;;;;;6.00;3.00;;;;;;;;;;4423995;32;20123;-55
2021/04/17 10:09:10;;;;;;;8.43;3.53;;;;;;;;;;4412574;32;20101;-54
2021/04/17 10:11:41;;;;;;;7.07;2.78;;;;;;;;;;4424182;32;20176;-53
2021/04/17 10:14:08;;;;;;;6.28;3.25;;;;;;;;;;4410244;32;20182;-53
2021/04/17 10:16:40;;;;;;;8.30;3.30;;;;;;;;;;4423923;32;20544;-56
2021/04/17 10:19:17;;;;;;;12.15;4.05;;;;;;;;;;4410007;32;20273;-57
2021/04/17 10:21:46;;;;;;;8.02;3.22;;;;;;;;;;4424209;32;20112;-56
2021/04/17 10:24:33;;;;;;;10.02;3.58;;;;;;;;;;4423940;32;20112;-55
2021/04/17 10:27:03;;;;;;;6.18;3.65;;;;;;;;;;4423858;32;20092;-53
2021/04/17 10:29:33;;;;;;;8.38;2.70;;;;;;;;;;4424262;32;20175;-54
2021/04/17 10:32:12;;;;;;;7.85;3.65;;;;;;;;;;4423679;32;20233;-56
2021/04/17 10:34:39;;;;;;;12.95;3.42;;;;;;;;;;4424114;32;20497;-55
2021/04/17 10:37:10;;;;;;;8.35;4.03;;;;;;;;;;4424091;32;20109;-57
2021/04/17 10:39:36;;;;;;;9.07;3.12;;;;;;;;;;4423764;32;20085;-54
2021/04/17 10:42:08;;;;;;;4.07;3.08;;;;;;;;;;4423746;32;20105;-54
2021/04/17 10:44:34;;;;;;;8.48;2.67;;;;;;;;;;4423815;32;20108;-56
2021/04/17 10:47:02;;;;;;;4.62;3.40;;;;;;;;;;4423985;32;20211;-55
2021/04/17 10:49:32;;;;;;;7.15;3.25;;;;;;;;;;4423798;32;20507;-55
2021/04/17 10:52:00;;;;;;;13.50;4.68;;;;;;;;;;4423278;32;20116;-56
2021/04/17 10:54:26;;;;;;;9.48;3.83;;;;;;;;;;4423991;32;20119;-56
2021/04/17 10:56:59;;;;;;;7.72;3.10;;;;;;;;;;4409588;32;20123;-56
2021/04/17 10:59:25;;;;;;;4.43;2.45;;;;;;;;;;4423775;32;20503;-54
2021/04/17 11:01:51;;;;;;;8.48;3.50;;;;;;;;;;4423954;32;20093;-55
2021/04/17 11:04:17;;;;;;;9.18;3.50;;;;;;;;;;4423825;32;20533;-52
2021/04/17 11:06:46;;;;;;;4.97;3.00;;;;;;;;;;4409578;32;20138;-54
2021/04/17 11:09:20;;;;;;;10.25;3.30;;;;;;;;;;4409901;32;20602;-53
2021/04/17 11:11:56;;;;;;;8.52;3.40;;;;;;;;;;4423421;32;20188;-53
2021/04/17 11:14:25;;;;;;;6.80;3.37;;;;;;;;;;4409793;32;20097;-52
2021/04/17 11:16:52;;;;;;;13.65;3.85;;;;;;;;;;4409454;32;20104;-54
2021/04/17 11:19:31;;;;;;;6.82;3.37;;;;;;;;;;4423530;32;20177;-53
2021/04/17 11:22:10;;;;;;;6.28;2.78;;;;;;;;;;4423328;32;20447;-53
2021/04/17 11:24:42;;;;;;;7.18;3.42;;;;;;;;;;4423357;32;20537;-53
2021/04/17 11:27:09;;;;;;;6.97;4.07;;;;;;;;;;4410277;32;20191;-53
2021/04/17 11:29:35;;;;;;;9.05;3.28;;;;;;;;;;4423302;32;20435;-53
2021/04/17 11:32:01;;;;;;;11.95;3.35;;;;;;;;;;4423243;32;20115;-52
2021/04/17 11:34:28;;;;;;;10.02;2.83;;;;;;;;;;4423649;32;20077;-54
2021/04/17 11:36:54;;;;;;;6.57;2.70;;;;;;;;;;4423442;32;21032;-52
2021/04/17 11:39:20;;;;;;;8.23;3.65;;;;;;;;;;4423401;32;20150;-53
2021/04/17 11:41:46;;;;;;;6.60;3.37;;;;;;;;;;4423368;32;20097;-53
2021/04/17 11:44:12;;;;;;;9.35;3.83;;;;;;;;;;4423273;32;20123;-51
2021/04/17 11:46:38;;;;;;;6.15;3.12;;;;;;;;;;4423158;32;20111;-52
2021/04/17 11:49:04;;;;;;;11.55;3.75;;;;;;;;;;4409012;32;20104;-50
2021/04/17 11:51:31;;;;;;;8.05;3.42;;;;;;;;;;4423036;32;20105;-53
2021/04/17 11:53:56;;;;;;;11.93;3.20;;;;;;;;;;4423030;32;20096;-52
2021/04/17 11:56:22;;;;;;;27.52;4.75;;;;;;;;;;4423065;32;20139;-54
2021/04/17 11:58:48;;;;;;;9.75;3.62;;;;;;;;;;4423077;32;20123;-53
2021/04/17 12:01:14;;;;;;;12.02;3.80;;;;;;;;;;4422917;32;20109;-53
2021/04/17 12:03:40;;;;;;;9.38;4.00;;;;;;;;;;4409096;32;20116;-53
2021/04/17 12:06:07;;;;;;;4.90;3.08;;;;;;;;;;4408663;32;20127;-54
2021/04/17 12:08:33;;;;;;;10.60;3.83;;;;;;;;;;4423049;32;20093;-53
2021/04/17 12:11:01;;;;;;;8.68;4.43;;;;;;;;;;4422699;32;20111;-51
2021/04/17 12:13:27;;;;;;;5.50;3.00;;;;;;;;;;4423020;32;20112;-53
2021/04/17 12:15:53;;;;;;;9.68;4.00;;;;;;;;;;4408858;32;20118;-53
2021/04/17 12:18:19;;;;;;;9.82;3.83;;;;;;;;;;4422931;32;20467;-56
2021/04/17 12:20:45;;;;;;;13.98;4.30;;;;;;;;;;4408598;32;20151;-52
2021/04/17 12:23:11;;;;;;;12.52;3.60;;;;;;;;;;4408793;32;20100;-53
2021/04/17 12:25:37;;;;;;;40.38;5.85;;;;;;;;;;4422946;32;20535;-54
2021/04/17 12:28:03;;;;;;;13.13;3.83;;;;;;;;;;4422839;32;20119;-53
2021/04/17 12:30:29;;;;;;;17.42;4.22;;;;;;;;;;4422610;32;20126;-53
2021/04/17 12:32:55;;;;;;;39.22;6.18;;;;;;;;;;4424233;32;20144;-53
2021/04/17 12:35:22;;;;;;;14.60;5.87;;;;;;;;;;4411167;32;20663;-54
2021/04/17 12:37:49;;;;;;;7.68;4.55;;;;;;;;;;4424927;32;20116;-56
2021/04/17 12:40:15;;;;;;;7.57;4.10;;;;;;;;;;4424921;32;20132;-56
2021/04/17 12:42:41;;;;;;;9.85;4.25;;;;;;;;;;4424913;32;20097;-54
2021/04/17 12:45:08;;;;;;;39.10;6.05;;;;;;;;;;4425099;32;20187;-54
2021/04/17 12:47:34;;;;;;;14.90;4.00;;;;;;;;;;4425205;32;20508;-56
2021/04/17 12:50:00;;;;;;;12.23;3.62;;;;;;;;;;4424789;32;20113;-56
2021/04/17 12:52:26;;;;;;;10.90;3.67;;;;;;;;;;4424837;32;20117;-54
2021/04/17 12:54:52;;;;;;;47.17;5.85;;;;;;;;;;4425073;32;20509;-57
2021/04/17 12:57:18;;;;;;;9.95;3.17;;;;;;;;;;4424798;32;20101;-55
2021/04/17 12:59:44;;;;;;;24.60;4.60;;;;;;;;;;4410586;32;20500;-55
2021/04/17 13:02:10;;;;;;;16.67;3.95;;;;;;;;;;4424631;32;20093;-55
2021/04/17 13:04:37;;;;;;;11.48;3.45;;;;;;;;;;4424617;32;20104;-55
2021/04/17 13:07:03;;;;;;;17.20;3.30;;;;;;;;;;4424480;32;20096;-55
2021/04/17 13:09:28;;;;;;;11.88;2.90;;;;;;;;;;4424693;32;20139;-54
2021/04/17 13:11:55;;;;;;;13.07;5.28;;;;;;;;;;4424812;32;20151;-55
2021/04/17 13:14:21;;;;;;;16.92;3.35;;;;;;;;;;4425023;32;20128;-55
2021/04/17 13:16:47;;;;;;;7.28;3.20;;;;;;;;;;4424744;32;20127;-55
2021/04/17 13:19:13;;;;;;;6.72;3.22;;;;;;;;;;4424617;32;20531;-56
2021/04/17 13:21:39;;;;;;;6.90;3.35;;;;;;;;;;4424130;32;20124;-54
2021/04/17 13:24:06;;;;;;;9.02;3.15;;;;;;;;;;4424484;32;20128;-56
2021/04/17 13:26:32;;;;;;;14.57;3.55;;;;;;;;;;4410511;32;20534;-55
2021/04/17 13:28:58;;;;;;;9.57;3.45;;;;;;;;;;4424659;32;20183;-54
2021/04/17 13:31:24;;;;;;;12.95;4.87;;;;;;;;;;4424460;32;20178;-55
2021/04/17 13:33:50;;;;;;;11.27;4.37;;;;;;;;;;4424317;32;20518;-54
2021/04/17 13:36:16;;;;;;;8.38;4.43;;;;;;;;;;4424229;32;20109;-56
2021/04/17 13:38:42;;;;;;;16.87;6.40;;;;;;;;;;4410210;32;20101;-54
2021/04/17 13:41:08;;;;;;;15.43;7.50;;;;;;;;;;4424559;32;20221;-53
2021/04/17 13:43:34;;;;;;;15.20;7.68;;;;;;;;;;4423992;32;20517;-53
2021/04/17 13:46:00;;;;;;;15.45;7.07;;;;;;;;;;4424131;32;20143;-56
2021/04/17 13:48:26;;;;;;;19.20;7.85;;;;;;;;;;4410465;32;20534;-57
2021/04/17 13:50:52;;;;;;;21.60;7.80;;;;;;;;;;4424351;32;20120;-57
2021/04/17 13:53:20;;;;;;;17.05;8.35;;;;;;;;;;4424254;32;20214;-56
2021/04/17 13:55:49;;;;;;;24.60;7.72;;;;;;;;;;4424516;32;20104;-57
2021/04/17 13:58:15;;;;;;;19.77;6.40;;;;;;;;;;4410027;32;20519;-58
2021/04/17 14:00:41;;;;;;;10.93;5.45;;;;;;;;;;4424008;32;20117;-57
2021/04/17 14:03:07;;;;;;;11.15;4.62;;;;;;;;;;4410170;32;20200;-57
2021/04/17 14:05:34;;;;;;;11.30;4.35;;;;;;;;;;4424236;32;20129;-57
2021/04/17 14:08:01;;;;;;;15.38;3.85;;;;;;;;;;4410006;32;20180;-55
2021/04/17 14:10:27;;;;;;;11.73;3.87;;;;;;;;;;4424120;32;20101;-55
2021/04/17 14:12:53;;;;;;;7.55;3.75;;;;;;;;;;4424039;32;20420;-57
2021/04/17 14:15:19;;;;;;;11.75;4.57;;;;;;;;;;4423910;32;20168;-57
2021/04/17 14:17:45;;;;;;;8.60;3.30;;;;;;;;;;4423939;32;20180;-56
2021/04/17 14:20:11;;;;;;;8.43;3.35;;;;;;;;;;4423843;32;20097;-57
2021/04/17 14:22:37;;;;;;;8.82;3.80;;;;;;;;;;4424122;32;20115;-57
2021/04/17 14:25:03;;;;;;;6.55;3.42;;;;;;;;;;4423750;32;20116;-52
2021/04/17 14:27:29;;;;;;;12.30;4.65;;;;;;;;;;4423844;32;20424;-54
2021/04/17 14:29:55;;;;;;;10.15;3.78;;;;;;;;;;4423731;32;20176;-53
2021/04/17 14:32:21;;;;;;;10.35;3.55;;;;;;;;;;4423836;32;20196;-55
2021/04/17 14:34:47;;;;;;;9.60;3.78;;;;;;;;;;4423754;32;20093;-56
2021/04/17 14:37:13;;;;;;;7.12;3.20;;;;;;;;;;4423680;32;20189;-56
2021/04/17 14:39:39;;;;;;;4.87;3.30;;;;;;;;;;4423648;32;20115;-55
2021/04/17 14:42:05;;;;;;;4.80;3.47;;;;;;;;;;4423717;32;20131;-55
2021/04/17 14:44:34;;;;;;;5.55;2.70;;;;;;;;;;4423747;32;20120;-54
2021/04/17 14:47:01;;;;;;;3.97;2.72;;;;;;;;;;4423652;32;20089;-53
2021/04/17 14:49:27;;;;;;;6.62;3.10;;;;;;;;;;4423957;32;20180;-54
2021/04/17 14:51:53;;;;;;;4.53;2.60;;;;;;;;;;4423535;32;20518;-56
2021/04/17 14:54:19;;;;;;;5.53;2.83;;;;;;;;;;4423162;32;20093;-53
2021/04/17 14:56:45;;;;;;;6.00;3.00;;;;;;;;;;4423545;32;20273;-54
2021/04/17 14:59:11;;;;;;;8.30;2.78;;;;;;;;;;4423665;32;20108;-55
2021/04/17 15:01:37;;;;;;;6.70;3.37;;;;;;;;;;4423487;32;20111;-54
2021/04/17 15:04:05;;;;;;;10.50;3.53;;;;;;;;;;4423844;32;20139;-56
2021/04/17 15:06:35;;;;;;;6.43;2.60;;;;;;;;;;4423333;32;20089;-54
2021/04/17 15:09:01;;;;;;;7.05;3.20;;;;;;;;;;4423518;32;20113;-54
2021/04/17 15:11:27;;;;;;;9.40;2.60;;;;;;;;;;4423272;32;20134;-54
2021/04/17 15:13:53;;;;;;;3.90;2.55;;;;;;;;;;4423657;32;20140;-55
2021/04/17 15:16:20;;;;;;;4.82;2.55;;;;;;;;;;4423355;32;20117;-54
2021/04/17 15:18:46;;;;;;;6.40;3.00;;;;;;;;;;4423672;32;20085;-54